createdAt,value
2022-12-28T00:00:22.905Z,101292.19
2022-12-28T00:04:45.188Z,101298.47
2022-12-28T00:08:47.501Z,101285.31
2022-12-28T00:12:49.468Z,101300.91
2022-12-28T00:16:51.387Z,101292.34
2022-12-28T00:21:00.958Z,101288.75
2022-12-28T00:25:03.093Z,101287.19
2022-12-28T00:29:05.856Z,101292.50
2022-12-28T00:33:08.276Z,101296.06
2022-12-28T00:37:13.117Z,101306.34
2022-12-28T00:41:15.267Z,101313.88
2022-12-28T00:45:17.975Z,101316.66
2022-12-28T00:49:19.994Z,101310.31
2022-12-28T00:53:21.692Z,101315.75
2022-12-28T00:57:23.596Z,101322.63
2022-12-28T01:01:27.625Z,101312.34
2022-12-28T01:05:29.787Z,101313.47
2022-12-28T01:09:31.493Z,101316.09
2022-12-28T01:13:33.493Z,101320.25
2022-12-28T01:17:36.912Z,101314.41
2022-12-28T01:21:40.683Z,101312.47
2022-12-28T01:25:44.238Z,101305.84
2022-12-28T01:29:46.332Z,101298.28
2022-12-28T01:33:48.791Z,101284.34
2022-12-28T01:37:50.687Z,101284.50
2022-12-28T01:41:52.418Z,101280.75
2022-12-28T01:45:54.589Z,101288.59
2022-12-28T01:50:09.118Z,101285.16
2022-12-28T01:54:11.554Z,101292.25
2022-12-28T01:58:18.795Z,101294.47
2022-12-28T02:02:22.087Z,101301.47
2022-12-28T02:06:23.965Z,101296.97
2022-12-28T02:10:40.749Z,101294.19
2022-12-28T02:14:46.867Z,101292.47
2022-12-28T02:18:49.915Z,101285.13
2022-12-28T02:23:38.597Z,101285.13
2022-12-28T02:28:01.855Z,101277.13
2022-12-28T02:32:18.364Z,101265.22
2022-12-28T02:36:26.874Z,101268.13
2022-12-28T02:40:34.999Z,101261.41
2022-12-28T02:44:56.028Z,101263.81
2022-12-28T02:49:17.090Z,101255.53
2022-12-28T02:53:40.437Z,101254.66
2022-12-28T02:58:05.062Z,101248.16
2022-12-28T03:02:28.587Z,101240.47
2022-12-28T03:07:17.380Z,101243.88
2022-12-28T03:11:27.437Z,101236.53
2022-12-28T03:15:37.294Z,101234.78
2022-12-28T03:20:06.220Z,101220.47
2022-12-28T03:24:29.205Z,101217.16
2022-12-28T03:28:53.167Z,101210.50
2022-12-28T03:32:56.030Z,101202.69
2022-12-28T03:37:00.865Z,101208.72
2022-12-28T03:41:12.355Z,101207.91
2022-12-28T03:45:44.991Z,101194.28
2022-12-28T03:49:44.432Z,101184.94
2022-12-28T03:53:47.974Z,101185.94
2022-12-28T03:57:52.664Z,101180.03
2022-12-28T04:01:59.156Z,101166.97
2022-12-28T04:06:01.608Z,101154.09
2022-12-28T04:10:03.807Z,101145.59
2022-12-28T04:14:10.640Z,101134.22
2022-12-28T04:18:16.951Z,101134.41
2022-12-28T04:22:18.772Z,101125.84
2022-12-28T04:26:21.216Z,101126.06
2022-12-28T04:30:25.809Z,101129.41
2022-12-28T04:34:27.986Z,101134.13
2022-12-28T04:38:39.203Z,101128.16
2022-12-28T04:42:41.166Z,101129.78
2022-12-28T04:46:42.850Z,101140.16
2022-12-28T04:50:44.876Z,101141.34
2022-12-28T04:54:46.618Z,101151.75
2022-12-28T04:58:49.165Z,101145.03
2022-12-28T05:02:50.852Z,101150.09
2022-12-28T05:06:52.896Z,101145.03
2022-12-28T05:10:54.638Z,101144.13
2022-12-28T05:14:56.633Z,101137.09
2022-12-28T05:18:58.455Z,101132.00
2022-12-28T05:23:00.384Z,101134.63
2022-12-28T05:27:02.151Z,101138.34
2022-12-28T05:31:07.915Z,101130.59
2022-12-28T05:35:09.893Z,101124.63
2022-12-28T05:39:11.873Z,101122.22
2022-12-28T05:43:13.626Z,101123.19
2022-12-28T05:47:15.749Z,101115.44
2022-12-28T05:51:20.509Z,101118.03
2022-12-28T05:55:22.473Z,101114.69
2022-12-28T05:59:24.316Z,101108.69
2022-12-28T06:03:26.383Z,101111.25
2022-12-28T06:07:28.170Z,101114.66
2022-12-28T06:11:30.707Z,101130.19
2022-12-28T06:15:32.349Z,101130.97
2022-12-28T06:19:34.360Z,101129.28
2022-12-28T06:23:36.703Z,101124.97
2022-12-28T06:27:38.325Z,101129.28
2022-12-28T06:31:44.497Z,101128.34
2022-12-28T06:35:46.236Z,101123.19
2022-12-28T06:39:48.186Z,101117.97
2022-12-28T06:43:50.742Z,101124.91
2022-12-28T06:47:52.679Z,101118.03
2022-12-28T06:51:54.608Z,101107.72
2022-12-28T06:55:59.237Z,101105.06
2022-12-28T07:00:01.043Z,101100.88
2022-12-28T07:04:04.722Z,101105.06
2022-12-28T07:08:12.281Z,101100.66
2022-12-28T07:12:14.600Z,101096.34
2022-12-28T07:16:19.760Z,101098.91
2022-12-28T07:20:21.880Z,101085.94
2022-12-28T07:24:23.872Z,101082.53
2022-12-28T07:28:25.552Z,101073.88
2022-12-28T07:32:27.571Z,101060.03
2022-12-28T07:36:31.956Z,101068.63
2022-12-28T07:40:33.606Z,101060.91
2022-12-28T07:44:38.193Z,101069.34
2022-12-28T07:48:41.356Z,101058.16
2022-12-28T07:52:43.307Z,101059.78
2022-12-28T07:56:45.266Z,101053.63
2022-12-28T08:00:47.241Z,101056.06
2022-12-28T08:04:52.275Z,101058.72
2022-12-28T08:08:58.259Z,101059.47
2022-12-28T08:13:01.157Z,101049.03
2022-12-28T08:17:03.107Z,101057.53
2022-12-28T08:21:07.721Z,101052.38
2022-12-28T08:25:09.906Z,101055.59
2022-12-28T08:29:15.522Z,101044.34
2022-12-28T08:33:17.173Z,101039.97
2022-12-28T08:37:20.314Z,101037.25
2022-12-28T08:41:23.906Z,101039.03
2022-12-28T08:45:26.478Z,101041.75
2022-12-28T08:49:28.170Z,101041.44
2022-12-28T08:53:30.343Z,101053.25
2022-12-28T08:57:33.441Z,101048.81
2022-12-28T09:01:44.239Z,101044.50
2022-12-28T09:05:47.919Z,101043.31
2022-12-28T09:09:53.231Z,101050.78
2022-12-28T09:13:55.250Z,101049.25
2022-12-28T09:17:56.894Z,101057.34
2022-12-28T09:21:59.093Z,101058.41
2022-12-28T09:26:11.314Z,101055.19
2022-12-28T09:30:13.474Z,101065.19
2022-12-28T09:38:37.514Z,101061.50
2022-12-28T09:42:42.869Z,101066.56
2022-12-28T09:47:12.478Z,101060.97
2022-12-28T09:51:14.985Z,101057.34
2022-12-28T09:55:18.719Z,101052.78
2022-12-28T09:59:24.309Z,101046.31
2022-12-28T10:03:33.286Z,101042.91
2022-12-28T10:07:37.303Z,101037.97
2022-12-28T10:11:41.889Z,101031.16
2022-12-28T10:15:44.037Z,101031.66
2022-12-28T10:19:47.548Z,101026.63
2022-12-28T10:28:16.845Z,101038.88
2022-12-28T10:32:19.384Z,101040.56
2022-12-28T10:36:22.894Z,101023.34
2022-12-28T10:40:29.640Z,101015.09
2022-12-28T10:44:41.598Z,101015.16
2022-12-28T10:48:51.561Z,101002.69
2022-12-28T10:52:58.441Z,101004.16
2022-12-28T10:57:00.406Z,101000.19
2022-12-28T11:01:13.768Z,100993.06
2022-12-28T11:05:24.445Z,100985.09
2022-12-28T11:09:28.738Z,100978.97
2022-12-28T11:13:30.536Z,100968.97
2022-12-28T11:17:37.596Z,100961.25
2022-12-28T11:21:41.115Z,100948.69
2022-12-28T11:25:43.193Z,100955.44
2022-12-28T11:29:47.814Z,100950.31
2022-12-28T11:33:53.666Z,100933.19
2022-12-28T11:37:58.372Z,100919.38
2022-12-28T11:46:23.350Z,100922.00
2022-12-28T11:50:34.743Z,100925.44
2022-12-28T11:54:39.292Z,100912.38
2022-12-28T11:58:41.259Z,100909.63
2022-12-28T12:02:49.626Z,100896.66
2022-12-28T12:06:51.782Z,100897.28
2022-12-28T12:11:25.681Z,100891.19
2022-12-28T12:15:48.280Z,100862.50
2022-12-28T12:20:01.532Z,100859.59
2022-12-28T12:24:26.799Z,100844.31
2022-12-28T12:28:39.317Z,100840.13
2022-12-28T12:33:00.525Z,100834.75
2022-12-28T12:37:15.618Z,100825.19
2022-12-28T12:41:30.432Z,100822.84
2022-12-28T12:46:00.305Z,100821.00
2022-12-28T12:50:07.855Z,100817.69
2022-12-28T12:54:26.877Z,100820.06
2022-12-28T12:58:51.234Z,100795.84
2022-12-28T13:03:43.927Z,100795.25
2022-12-28T13:07:46.111Z,100800.13
2022-12-28T13:11:48.309Z,100793.81
2022-12-28T13:15:50.422Z,100787.84
2022-12-28T13:20:08.238Z,100781.22
2022-12-28T13:24:18.653Z,100771.75
2022-12-28T13:28:22.598Z,100761.25
2022-12-28T13:32:37.820Z,100759.97
2022-12-28T13:36:58.332Z,100750.19
2022-12-28T13:41:01.991Z,100763.94
2022-12-28T13:45:06.230Z,100750.47
2022-12-28T13:49:09.054Z,100734.06
2022-12-28T13:53:20.636Z,100724.09
2022-12-28T14:01:50.872Z,100715.25
2022-12-28T14:05:59.242Z,100712.13
2022-12-28T14:10:02.860Z,100709.84
2022-12-28T14:14:05.577Z,100697.69
2022-12-28T14:18:08.526Z,100699.53
2022-12-28T14:22:29.269Z,100702.88
2022-12-28T14:26:31.718Z,100695.84
2022-12-28T14:30:43.084Z,100701.13
2022-12-28T14:34:46.819Z,100688.00
2022-12-28T14:38:57.201Z,100682.94
2022-12-28T14:43:32.503Z,100667.25
2022-12-28T14:47:44.513Z,100658.66
2022-12-28T14:51:46.231Z,100669.41
2022-12-28T14:56:06.208Z,100670.19
2022-12-28T15:00:25.794Z,100673.47
2022-12-28T15:04:36.948Z,100653.09
2022-12-28T15:08:39.102Z,100648.50
2022-12-28T15:12:40.810Z,100650.25
2022-12-28T15:16:42.845Z,100655.03
2022-12-28T15:20:44.672Z,100652.72
2022-12-28T15:24:48.804Z,100658.13
2022-12-28T15:28:51.167Z,100644.59
2022-12-28T15:32:53.191Z,100657.69
2022-12-28T15:36:54.857Z,100647.84
2022-12-28T15:40:56.830Z,100649.41
2022-12-28T15:44:58.580Z,100634.16
2022-12-28T15:49:05.333Z,100644.50
2022-12-28T15:53:07.005Z,100654.91
2022-12-28T15:57:11.781Z,100654.63
2022-12-28T16:01:13.578Z,100657.22
2022-12-28T16:05:15.656Z,100644.22
2022-12-28T16:09:17.575Z,100638.09
2022-12-28T16:13:19.504Z,100647.38
2022-12-28T16:17:21.187Z,100648.41
2022-12-28T16:21:24.874Z,100638.16
2022-12-28T16:25:26.593Z,100639.47
2022-12-28T16:29:28.574Z,100627.34
2022-12-28T16:33:30.615Z,100628.88
2022-12-28T16:37:32.543Z,100621.53
2022-12-28T16:41:38.164Z,100625.09
2022-12-28T16:45:43.132Z,100609.97
2022-12-28T16:49:44.789Z,100614.03
2022-12-28T16:53:46.787Z,100616.69
2022-12-28T16:57:48.716Z,100617.53
2022-12-28T17:01:52.496Z,100619.16
2022-12-28T17:05:54.575Z,100619.16
2022-12-28T17:09:56.584Z,100617.03
2022-12-28T17:14:07.034Z,100616.66
2022-12-28T17:18:09.907Z,100610.72
2022-12-28T17:22:11.839Z,100609.47
2022-12-28T17:26:13.803Z,100611.09
2022-12-28T17:30:15.566Z,100607.44
2022-12-28T17:34:19.753Z,100601.56
2022-12-28T17:38:21.421Z,100597.97
2022-12-28T17:42:23.712Z,100607.50
2022-12-28T17:46:28.160Z,100605.94
2022-12-28T17:50:30.095Z,100594.31
2022-12-28T17:54:32.268Z,100590.94
2022-12-28T17:58:34.684Z,100586.97
2022-12-28T18:02:36.505Z,100590.66
2022-12-28T18:06:39.254Z,100584.75
2022-12-28T18:10:41.049Z,100588.31
2022-12-28T18:14:43.281Z,100582.91
2022-12-28T18:18:45.714Z,100583.91
2022-12-28T18:22:47.733Z,100584.53
2022-12-28T18:26:49.714Z,100586.19
2022-12-28T18:30:54.297Z,100586.91
2022-12-28T18:34:58.249Z,100592.88
2022-12-28T18:39:00.168Z,100586.75
2022-12-28T18:43:01.996Z,100575.44
2022-12-28T18:47:03.978Z,100566.50
2022-12-28T18:51:12.808Z,100563.31
2022-12-28T18:55:15.287Z,100559.97
2022-12-28T18:59:16.973Z,100558.97
2022-12-28T19:03:19.262Z,100563.63
2022-12-28T19:07:21.097Z,100567.75
2022-12-28T19:11:23.055Z,100564.97
2022-12-28T19:15:24.806Z,100559.88
2022-12-28T19:19:26.824Z,100564.41
2022-12-28T19:23:28.523Z,100558.09
2022-12-28T19:27:30.583Z,100556.03
2022-12-28T19:31:33.333Z,100552.56
2022-12-28T19:35:35.312Z,100565.75
2022-12-28T19:39:37.029Z,100562.09
2022-12-28T19:43:40.062Z,100559.66
2022-12-28T19:47:41.692Z,100551.31
2022-12-28T19:51:43.690Z,100545.00
2022-12-28T19:55:45.336Z,100540.97
2022-12-28T19:59:48.129Z,100524.28
2022-12-28T20:03:49.903Z,100519.81
2022-12-28T20:07:52.061Z,100531.16
2022-12-28T20:11:53.721Z,100541.00
2022-12-28T20:15:55.778Z,100529.72
2022-12-28T20:19:57.589Z,100524.28
2022-12-28T20:24:01.559Z,100530.69
2022-12-28T20:28:03.432Z,100533.66
2022-12-28T20:32:05.618Z,100537.38
2022-12-28T20:36:13.015Z,100537.59
2022-12-28T20:40:15.091Z,100541.66
2022-12-28T20:44:22.184Z,100538.22
2022-12-28T20:48:24.776Z,100541.31
2022-12-28T20:52:26.566Z,100544.91
2022-12-28T20:56:28.625Z,100540.28
2022-12-28T21:00:30.377Z,100536.50
2022-12-28T21:04:32.397Z,100530.56
2022-12-28T21:08:35.079Z,100521.66
2022-12-28T21:12:37.069Z,100526.38
2022-12-28T21:16:38.725Z,100528.78
2022-12-28T21:20:48.099Z,100518.13
2022-12-28T21:24:49.681Z,100505.50
2022-12-28T21:28:51.686Z,100506.50
2022-12-28T21:32:53.998Z,100501.84
2022-12-28T21:36:56.379Z,100491.72
2022-12-28T21:41:04.464Z,100489.28
2022-12-28T21:45:07.461Z,100487.16
2022-12-28T21:49:09.571Z,100485.28
2022-12-28T21:53:11.635Z,100475.13
2022-12-28T21:57:13.457Z,100472.56
2022-12-28T22:01:34.286Z,100481.09
2022-12-28T22:05:54.796Z,100486.06
2022-12-28T22:10:15.340Z,100487.78
2022-12-28T22:14:16.925Z,100472.94
2022-12-28T22:22:43.686Z,100481.22
2022-12-28T22:26:45.730Z,100477.84
2022-12-28T22:30:47.415Z,100475.09
2022-12-28T22:34:49.373Z,100474.91
2022-12-28T22:38:51.092Z,100477.78
2022-12-28T22:42:53.307Z,100475.81
2022-12-28T22:46:55.253Z,100476.56
2022-12-28T22:51:02.229Z,100478.31
2022-12-28T22:55:04.291Z,100474.56
2022-12-28T22:59:09.654Z,100463.41
2022-12-28T23:03:15.418Z,100455.47
2022-12-28T23:07:17.962Z,100459.34
2022-12-28T23:11:38.160Z,100455.41
2022-12-28T23:15:40.130Z,100435.66
2022-12-28T23:20:04.915Z,100442.88
2022-12-28T23:24:30.864Z,100439.81
2022-12-28T23:28:33.588Z,100434.72
2022-12-28T23:32:35.598Z,100434.06
2022-12-28T23:36:37.279Z,100443.75
2022-12-28T23:40:40.126Z,100445.53
2022-12-28T23:44:42.152Z,100433.03
2022-12-28T23:48:44.080Z,100433.59
2022-12-28T23:52:45.821Z,100436.38
2022-12-28T23:56:49.077Z,100432.88
